Time;durP1;ratioP1;P1;durP2;ratioP2;P2;SDS_P1;SDS_P2;PMS_P1;PMS_P2;Temp;Humidity;BMP_temperature;BMP_pressure;BME280_temperature;BME280_humidity;BME280_pressure;Samples;Min_cycle;Max_cycle;Signal;HPM_P1;HPM_P2
2023/02/04 00:00:51;;;;;;;14.23;4.37;;;7.80;99.90;;;;;;5049378;28;20682;-78
2023/02/04 00:03:16;;;;;;;15.97;3.93;;;7.90;99.90;;;;;;5050580;28;20220;-78
2023/02/04 00:05:42;;;;;;;24.67;6.07;;;8.00;99.90;;;;;;5052155;28;20214;-79
2023/02/04 00:08:08;;;;;;;16.37;3.57;;;7.90;99.90;;;;;;5052753;28;20642;-79
2023/02/04 00:10:35;;;;;;;24.50;5.47;;;7.90;99.90;;;;;;5054836;28;20423;-79
2023/02/04 00:13:04;;;;;;;13.43;3.97;;;7.90;99.90;;;;;;5050441;28;20419;-78
2023/02/04 00:15:29;;;;;;;16.50;4.63;;;7.60;99.90;;;;;;5050693;28;20440;-78
2023/02/04 00:17:55;;;;;;;19.90;5.50;;;7.90;99.90;;;;;;5049240;28;20423;-79
2023/02/04 00:20:21;;;;;;;15.27;4.90;;;8.10;99.90;;;;;;5050964;28;20190;-78
2023/02/04 00:22:47;;;;;;;15.20;3.23;;;8.00;99.90;;;;;;5050542;28;20784;-78
2023/02/04 00:25:13;;;;;;;16.10;3.70;;;7.50;99.90;;;;;;5050758;28;20515;-78
2023/02/04 00:27:38;;;;;;;11.57;4.03;;;7.90;99.90;;;;;;5049449;28;20206;-78
2023/02/04 00:30:05;;;;;;;18.00;4.53;;;7.90;99.90;;;;;;5052610;28;20631;-78
2023/02/04 00:32:33;;;;;;;9.67;3.70;;;7.90;99.90;;;;;;5037163;28;20280;-78
2023/02/04 00:35:00;;;;;;;14.90;4.43;;;8.00;99.90;;;;;;5053860;28;20966;-78
2023/02/04 00:37:26;;;;;;;12.90;3.83;;;7.90;99.90;;;;;;5053583;28;20420;-79
2023/02/04 00:39:51;;;;;;;14.43;3.43;;;7.90;99.90;;;;;;5054599;28;20427;-79
2023/02/04 00:42:17;;;;;;;15.17;4.50;;;7.90;99.90;;;;;;5054576;28;20192;-79
2023/02/04 00:44:43;;;;;;;14.37;4.50;;;7.80;99.90;;;;;;5053646;28;20263;-78
2023/02/04 00:47:09;;;;;;;19.40;4.40;;;7.80;99.90;;;;;;5054639;28;20960;-79
2023/02/04 00:49:34;;;;;;;16.83;4.23;;;7.90;99.90;;;;;;5053657;28;20181;-78
2023/02/04 00:52:00;;;;;;;20.03;4.43;;;7.80;99.90;;;;;;5055363;28;20178;-79
2023/02/04 00:54:26;;;;;;;19.93;3.80;;;7.90;99.90;;;;;;5054033;28;20202;-78
2023/02/04 00:56:52;;;;;;;17.13;4.87;;;7.90;99.90;;;;;;5053753;28;20432;-79
2023/02/04 00:59:18;;;;;;;11.67;4.17;;;8.10;99.90;;;;;;5055345;28;20420;-78
2023/02/04 01:01:43;;;;;;;20.47;4.10;;;7.90;99.90;;;;;;5055397;28;20260;-79
2023/02/04 01:04:09;;;;;;;15.00;4.17;;;7.90;99.90;;;;;;5055415;28;20236;-79
2023/02/04 01:06:35;;;;;;;20.97;5.50;;;7.90;99.90;;;;;;5054594;28;20209;-78
2023/02/04 01:09:01;;;;;;;15.20;4.50;;;7.90;99.90;;;;;;5055635;28;20182;-79
2023/02/04 01:11:28;;;;;;;17.60;4.40;;;7.80;99.90;;;;;;5057189;28;20424;-78
2023/02/04 01:13:53;;;;;;;17.87;4.27;;;8.00;99.90;;;;;;5055653;28;20456;-79
2023/02/04 01:16:19;;;;;;;23.00;4.60;;;7.80;99.90;;;;;;5055267;28;20465;-78
2023/02/04 01:18:45;;;;;;;21.77;4.27;;;7.80;99.90;;;;;;5055336;28;20174;-79
2023/02/04 01:21:10;;;;;;;16.87;4.03;;;8.00;99.90;;;;;;5038106;28;20189;-78
2023/02/04 01:23:37;;;;;;;14.60;3.97;;;7.80;99.90;;;;;;5055973;28;20312;-78
2023/02/04 01:26:03;;;;;;;15.43;4.23;;;7.90;99.90;;;;;;5054693;28;20218;-79
2023/02/04 01:28:29;;;;;;;12.00;3.60;;;7.90;99.90;;;;;;5055471;28;20403;-78
2023/02/04 01:30:54;;;;;;;16.00;4.13;;;8.20;99.90;;;;;;5037629;28;20405;-78
2023/02/04 01:33:20;;;;;;;18.77;5.20;;;8.10;99.90;;;;;;5054002;28;20450;-79
2023/02/04 01:35:46;;;;;;;17.70;4.43;;;8.10;99.90;;;;;;5054790;28;20225;-79
2023/02/04 01:38:12;;;;;;;16.57;5.37;;;7.90;99.90;;;;;;5056107;28;20431;-78
2023/02/04 01:40:37;;;;;;;16.40;4.10;;;7.90;99.90;;;;;;5056750;28;20186;-78
2023/02/04 01:43:04;;;;;;;10.40;3.83;;;7.90;99.90;;;;;;5058657;28;20188;-79
2023/02/04 01:45:33;;;;;;;14.27;4.67;;;7.90;99.90;;;;;;5057942;28;20193;-79
2023/02/04 01:47:59;;;;;;;13.30;4.80;;;7.90;99.90;;;;;;5056574;28;20425;-79
2023/02/04 01:50:24;;;;;;;14.83;4.40;;;8.00;99.90;;;;;;5057453;28;20412;-78
2023/02/04 01:52:50;;;;;;;17.23;4.90;;;7.90;99.90;;;;;;5056756;28;20408;-79
2023/02/04 01:55:18;;;;;;;21.10;3.93;;;7.90;99.90;;;;;;5056406;28;20201;-78
2023/02/04 01:57:45;;;;;;;20.53;5.30;;;7.90;99.90;;;;;;5055709;28;20186;-79
2023/02/04 02:00:22;;;;;;;13.00;3.90;;;7.90;99.90;;;;;;5055330;28;20657;-79
2023/02/04 02:02:51;;;;;;;12.20;3.90;;;8.10;99.90;;;;;;5052667;28;20489;-79
2023/02/04 02:05:35;;;;;;;13.83;4.40;;;7.90;99.90;;;;;;5056766;28;20464;-79
2023/02/04 02:08:02;;;;;;;22.10;6.07;;;7.80;99.90;;;;;;5053485;28;20474;-78
2023/02/04 02:10:28;;;;;;;14.20;4.70;;;7.90;99.90;;;;;;5056108;28;20411;-79
2023/02/04 02:12:55;;;;;;;23.27;5.00;;;7.80;99.90;;;;;;5056318;28;20415;-79
2023/02/04 02:15:22;;;;;;;13.80;4.40;;;7.80;99.90;;;;;;5037691;28;20429;-78
2023/02/04 02:17:48;;;;;;;22.50;5.60;;;7.80;99.90;;;;;;5055921;28;20469;-79
2023/02/04 02:20:16;;;;;;;14.70;4.67;;;7.80;99.90;;;;;;5056792;28;20420;-79
2023/02/04 02:22:51;;;;;;;13.47;3.77;;;7.80;99.90;;;;;;5057524;28;20212;-78
2023/02/04 02:25:17;;;;;;;26.80;4.73;;;7.70;99.90;;;;;;5056695;28;20520;-79
2023/02/04 02:27:43;;;;;;;15.23;4.07;;;7.90;99.90;;;;;;5057062;28;20460;-78
2023/02/04 02:30:10;;;;;;;12.77;3.67;;;7.90;99.90;;;;;;5058404;28;20177;-78
2023/02/04 02:32:36;;;;;;;16.50;4.27;;;7.80;99.90;;;;;;5041089;28;20455;-78
2023/02/04 02:35:03;;;;;;;20.43;4.27;;;7.80;99.90;;;;;;5058862;28;20424;-78
2023/02/04 02:37:29;;;;;;;17.93;3.80;;;7.80;99.90;;;;;;5059568;28;20413;-78
2023/02/04 02:39:55;;;;;;;20.27;4.50;;;7.90;99.90;;;;;;5059780;28;20503;-79
2023/02/04 02:42:21;;;;;;;24.60;4.87;;;8.00;99.90;;;;;;5060477;28;20463;-78
2023/02/04 02:44:48;;;;;;;17.93;4.70;;;8.00;99.90;;;;;;5069647;28;20250;-79
2023/02/04 02:47:20;;;;;;;14.40;4.40;;;7.90;99.90;;;;;;5080996;28;20522;-79
2023/02/04 02:49:49;;;;;;;12.30;3.93;;;7.90;99.90;;;;;;5061861;28;20444;-79
2023/02/04 02:52:16;;;;;;;17.30;4.70;;;7.80;99.90;;;;;;5080711;28;20404;-79
2023/02/04 02:54:42;;;;;;;16.80;3.87;;;7.90;99.90;;;;;;5072761;28;20440;-79
2023/02/04 02:57:21;;;;;;;18.37;4.23;;;7.90;99.90;;;;;;5042110;28;20951;-79
2023/02/04 02:59:48;;;;;;;20.83;4.27;;;7.90;99.90;;;;;;5059512;28;20412;-79
2023/02/04 03:02:17;;;;;;;14.53;4.23;;;8.00;99.90;;;;;;5060478;28;20473;-79
2023/02/04 03:04:47;;;;;;;16.90;5.13;;;7.80;99.90;;;;;;5058456;28;20447;-79
2023/02/04 03:07:14;;;;;;;15.50;4.23;;;7.90;99.90;;;;;;5071177;28;20448;-79
2023/02/04 03:09:39;;;;;;;19.27;5.00;;;7.90;99.90;;;;;;5049052;28;20920;-80
2023/02/04 03:12:06;;;;;;;25.97;4.70;;;8.00;99.90;;;;;;5046799;28;20524;-80
2023/02/04 03:14:32;;;;;;;22.57;4.13;;;7.80;99.90;;;;;;5047075;28;20197;-80
2023/02/04 03:17:00;;;;;;;16.30;4.23;;;7.90;99.90;;;;;;5044129;28;20852;-80
2023/02/04 03:19:26;;;;;;;15.57;4.97;;;8.10;99.90;;;;;;5046716;28;20424;-80
2023/02/04 03:21:54;;;;;;;18.60;4.50;;;7.90;99.90;;;;;;5048591;28;20413;-80
2023/02/04 03:24:20;;;;;;;12.27;3.83;;;7.90;99.90;;;;;;5048874;28;20994;-80
2023/02/04 03:26:46;;;;;;;16.00;3.83;;;7.80;99.90;;;;;;5047741;28;20452;-80
2023/02/04 03:29:12;;;;;;;16.17;3.83;;;7.90;99.90;;;;;;5049337;28;20785;-80
2023/02/04 03:31:37;;;;;;;20.53;5.57;;;7.90;99.90;;;;;;5048395;28;20668;-80
2023/02/04 03:34:03;;;;;;;13.03;3.40;;;7.70;99.90;;;;;;5049501;28;20424;-80
2023/02/04 03:36:29;;;;;;;16.53;3.93;;;7.90;99.90;;;;;;5049682;28;20193;-80
2023/02/04 03:38:55;;;;;;;14.70;3.37;;;7.90;99.90;;;;;;5049342;28;20466;-80
2023/02/04 03:41:21;;;;;;;16.33;4.53;;;7.80;99.90;;;;;;5049395;28;20493;-80
2023/02/04 03:43:46;;;;;;;17.30;4.77;;;7.90;99.90;;;;;;5047954;28;20276;-79
2023/02/04 03:46:12;;;;;;;13.00;4.00;;;7.80;99.90;;;;;;5048347;28;20229;-80
2023/02/04 03:48:38;;;;;;;15.20;4.80;;;8.00;99.90;;;;;;5049563;28;20178;-80
2023/02/04 03:51:03;;;;;;;15.97;4.67;;;8.00;99.90;;;;;;5048052;28;20273;-79
2023/02/04 03:53:29;;;;;;;14.17;4.60;;;7.90;99.90;;;;;;5031528;28;20186;-81
2023/02/04 03:55:55;;;;;;;13.47;3.90;;;8.00;99.90;;;;;;5048259;28;20197;-80
2023/02/04 03:58:21;;;;;;;21.80;4.10;;;7.70;99.90;;;;;;5049559;28;20174;-80
2023/02/04 04:00:46;;;;;;;19.67;4.20;;;8.00;99.90;;;;;;5049124;28;20177;-80
2023/02/04 04:03:12;;;;;;;16.63;4.73;;;7.90;99.90;;;;;;5031537;28;20495;-80
2023/02/04 04:05:38;;;;;;;16.37;4.13;;;7.90;99.90;;;;;;5051416;28;20205;-80
2023/02/04 04:08:03;;;;;;;20.10;4.30;;;8.10;99.90;;;;;;5051874;28;20628;-80
2023/02/04 04:10:29;;;;;;;17.63;4.23;;;7.90;99.90;;;;;;5051601;28;20544;-80
2023/02/04 04:12:55;;;;;;;15.67;4.20;;;7.90;99.90;;;;;;5053294;28;20209;-80
2023/02/04 04:15:20;;;;;;;20.90;4.73;;;7.90;99.90;;;;;;5053188;28;20289;-80
2023/02/04 04:17:46;;;;;;;19.27;5.37;;;7.90;99.90;;;;;;5051505;28;20181;-79
2023/02/04 04:20:12;;;;;;;15.37;4.50;;;7.90;99.90;;;;;;5052863;28;20174;-80
2023/02/04 04:22:38;;;;;;;18.27;4.70;;;7.80;99.90;;;;;;5053053;28;20220;-79
2023/02/04 04:25:04;;;;;;;12.57;3.70;;;7.90;99.90;;;;;;5050797;28;20204;-80
2023/02/04 04:27:29;;;;;;;13.93;4.27;;;7.90;99.90;;;;;;5051809;28;20516;-80
2023/02/04 04:29:55;;;;;;;18.73;4.60;;;7.90;99.90;;;;;;5066585;28;20579;-79
2023/02/04 04:32:21;;;;;;;22.90;4.77;;;7.90;99.90;;;;;;5070015;28;20241;-80
2023/02/04 04:34:47;;;;;;;16.43;4.40;;;8.10;99.90;;;;;;5066490;28;20462;-80
2023/02/04 04:37:13;;;;;;;16.60;4.30;;;7.80;99.90;;;;;;5053301;28;20573;-80
2023/02/04 04:39:38;;;;;;;12.10;4.00;;;7.70;99.90;;;;;;5050708;28;20718;-79
2023/02/04 04:42:04;;;;;;;15.33;5.10;;;7.80;99.90;;;;;;5051255;28;20448;-79
2023/02/04 04:44:30;;;;;;;29.30;4.70;;;7.70;99.90;;;;;;5034105;28;20209;-80
2023/02/04 04:46:55;;;;;;;13.23;5.60;;;8.00;99.90;;;;;;5051905;28;20292;-79
2023/02/04 04:49:21;;;;;;;17.20;4.20;;;7.90;99.90;;;;;;5050601;28;20174;-80
2023/02/04 04:51:47;;;;;;;10.73;3.73;;;7.80;99.90;;;;;;5050813;28;20311;-79
2023/02/04 04:54:12;;;;;;;22.03;5.57;;;7.80;99.90;;;;;;5050363;28;20582;-80
2023/02/04 04:56:38;;;;;;;18.87;5.00;;;8.10;99.90;;;;;;5051885;28;20205;-80
2023/02/04 04:59:04;;;;;;;19.70;4.10;;;7.80;99.90;;;;;;5051869;28;20201;-79
2023/02/04 05:01:29;;;;;;;16.33;4.10;;;7.80;99.90;;;;;;5051686;28;20203;-80
2023/02/04 05:03:55;;;;;;;17.10;4.40;;;7.80;99.90;;;;;;5051592;28;20178;-80
2023/02/04 05:06:24;;;;;;;19.60;4.67;;;7.90;99.90;;;;;;5051427;28;20692;-79
2023/02/04 05:08:53;;;;;;;22.00;5.30;;;7.80;99.90;;;;;;5050632;28;20267;-80
2023/02/04 05:11:19;;;;;;;19.17;4.40;;;7.80;99.90;;;;;;5050299;28;20423;-79
2023/02/04 05:13:45;;;;;;;19.17;4.70;;;7.70;99.90;;;;;;5051765;28;20440;-80
2023/02/04 05:16:11;;;;;;;23.40;4.87;;;7.80;99.90;;;;;;5050051;28;20518;-79
2023/02/04 05:18:40;;;;;;;13.77;4.63;;;7.80;99.90;;;;;;5051653;28;20424;-80
2023/02/04 05:21:07;;;;;;;11.80;3.67;;;7.80;99.90;;;;;;5050245;28;20192;-79
2023/02/04 05:23:33;;;;;;;24.93;4.10;;;7.70;99.90;;;;;;5049130;28;20439;-80
2023/02/04 05:25:58;;;;;;;10.13;3.90;;;8.00;99.90;;;;;;5051245;28;20432;-79
2023/02/04 05:28:24;;;;;;;20.07;5.93;;;7.70;99.90;;;;;;5050301;28;20416;-80
2023/02/04 05:30:50;;;;;;;18.07;4.63;;;7.80;99.90;;;;;;5050012;28;20190;-80
2023/02/04 05:33:16;;;;;;;18.00;4.00;;;7.60;99.90;;;;;;5049825;28;20412;-80
2023/02/04 05:35:41;;;;;;;19.90;4.70;;;7.80;99.90;;;;;;5051311;28;20193;-80
2023/02/04 05:38:07;;;;;;;17.20;4.53;;;7.70;99.90;;;;;;5051074;28;20178;-79
2023/02/04 05:40:32;;;;;;;18.47;4.40;;;7.70;99.90;;;;;;5051205;28;20181;-80
2023/02/04 05:42:58;;;;;;;14.10;4.43;;;7.70;99.90;;;;;;5051267;28;20190;-79
2023/02/04 05:45:23;;;;;;;17.13;3.93;;;7.70;99.90;;;;;;5049943;28;20205;-79
2023/02/04 05:47:49;;;;;;;18.77;4.40;;;7.70;99.90;;;;;;5049526;28;20309;-79
2023/02/04 05:50:15;;;;;;;15.30;4.60;;;7.60;99.90;;;;;;5049723;28;20185;-79
2023/02/04 05:52:41;;;;;;;14.70;4.30;;;7.80;99.90;;;;;;5049785;28;20268;-79
2023/02/04 05:55:11;;;;;;;21.53;4.83;;;7.70;99.90;;;;;;5050702;28;20865;-79
2023/02/04 05:57:41;;;;;;;16.23;4.70;;;7.80;99.90;;;;;;5049462;28;20246;-80
2023/02/04 06:00:07;;;;;;;16.63;4.70;;;7.80;99.90;;;;;;5051330;28;20458;-79
2023/02/04 06:02:33;;;;;;;9.33;3.70;;;7.70;99.90;;;;;;5049821;28;20452;-80
2023/02/04 06:04:59;;;;;;;22.40;5.47;;;7.60;99.90;;;;;;5032724;28;20522;-80
2023/02/04 06:07:25;;;;;;;23.60;6.33;;;7.70;99.90;;;;;;5050645;28;20273;-80
2023/02/04 06:09:50;;;;;;;24.40;4.87;;;7.60;99.90;;;;;;5050659;28;20503;-80
2023/02/04 06:12:16;;;;;;;19.70;5.37;;;7.70;99.90;;;;;;5050866;28;20234;-80
2023/02/04 06:14:41;;;;;;;12.43;4.80;;;7.60;99.90;;;;;;5032827;28;20251;-80
2023/02/04 06:17:07;;;;;;;22.57;5.00;;;7.70;99.90;;;;;;5050545;28;20207;-80
2023/02/04 06:19:33;;;;;;;15.80;3.90;;;7.70;99.90;;;;;;5049383;28;20224;-80
2023/02/04 06:21:58;;;;;;;17.70;4.60;;;7.60;99.90;;;;;;5050657;28;20174;-79
2023/02/04 06:24:24;;;;;;;17.40;4.47;;;7.70;99.90;;;;;;5048197;28;20209;-80
2023/02/04 06:26:49;;;;;;;16.60;4.37;;;7.60;99.90;;;;;;5048462;28;20201;-80
2023/02/04 06:29:15;;;;;;;18.80;4.80;;;7.60;99.90;;;;;;5050086;28;20215;-79
2023/02/04 06:31:41;;;;;;;17.00;3.60;;;7.70;99.90;;;;;;5049392;28;20177;-79
2023/02/04 06:34:06;;;;;;;15.53;4.13;;;7.80;99.90;;;;;;5048908;28;20510;-80
2023/02/04 06:36:32;;;;;;;18.53;4.90;;;7.60;99.90;;;;;;5049134;28;20558;-80
2023/02/04 06:38:58;;;;;;;17.70;3.93;;;7.70;99.90;;;;;;5050076;28;20174;-80
2023/02/04 06:41:23;;;;;;;12.90;5.23;;;7.60;99.90;;;;;;5050479;28;20512;-80
2023/02/04 06:43:49;;;;;;;17.90;3.90;;;7.60;99.90;;;;;;5048480;28;20177;-79
2023/02/04 06:46:14;;;;;;;18.47;4.37;;;7.70;99.90;;;;;;5050289;28;20198;-80
2023/02/04 06:48:40;;;;;;;20.43;4.03;;;7.80;99.90;;;;;;5049801;28;20177;-80
2023/02/04 06:51:06;;;;;;;17.17;4.50;;;7.70;99.90;;;;;;5050178;28;20178;-80
2023/02/04 06:53:32;;;;;;;14.30;5.03;;;7.60;99.90;;;;;;5049889;28;20173;-80
2023/02/04 06:55:57;;;;;;;19.70;5.47;;;7.70;99.90;;;;;;5050287;28;20284;-79
2023/02/04 06:58:23;;;;;;;21.40;6.30;;;7.70;99.90;;;;;;5032065;28;20213;-80
2023/02/04 07:00:49;;;;;;;14.70;3.50;;;7.80;99.90;;;;;;5049063;28;20536;-80
2023/02/04 07:03:14;;;;;;;19.47;4.50;;;7.70;99.90;;;;;;5049947;28;20482;-80
2023/02/04 07:05:40;;;;;;;23.07;5.33;;;7.60;99.90;;;;;;5050418;28;20266;-80
2023/02/04 07:08:06;;;;;;;19.47;4.27;;;7.70;99.90;;;;;;5048893;28;20294;-80
2023/02/04 07:10:31;;;;;;;16.37;4.07;;;7.70;99.90;;;;;;5049949;28;20235;-80
2023/02/04 07:12:57;;;;;;;13.83;3.80;;;7.70;99.90;;;;;;5049693;28;20188;-80
2023/02/04 07:15:23;;;;;;;17.80;4.20;;;7.80;99.90;;;;;;5048627;28;20189;-81
2023/02/04 07:17:49;;;;;;;15.60;4.53;;;7.60;99.90;;;;;;5048443;28;20673;-80
2023/02/04 07:20:14;;;;;;;13.63;4.00;;;7.70;99.90;;;;;;5032087;28;20181;-80
2023/02/04 07:22:41;;;;;;;15.80;4.50;;;7.80;99.90;;;;;;5048505;28;20419;-80
2023/02/04 07:25:07;;;;;;;12.87;3.13;;;7.90;99.90;;;;;;5048797;28;20698;-80
2023/02/04 07:27:33;;;;;;;23.07;5.77;;;7.60;99.90;;;;;;5049714;28;20447;-80
2023/02/04 07:29:58;;;;;;;21.50;5.20;;;7.70;99.90;;;;;;5048547;28;20408;-80
2023/02/04 07:32:26;;;;;;;14.83;4.23;;;7.60;99.90;;;;;;5048591;28;20174;-81
2023/02/04 07:34:52;;;;;;;18.00;6.40;;;7.70;99.90;;;;;;5049652;28;20284;-80
2023/02/04 07:37:19;;;;;;;12.00;3.40;;;7.90;99.90;;;;;;5048590;28;20924;-80
2023/02/04 07:39:45;;;;;;;14.60;5.20;;;7.70;99.90;;;;;;5050913;28;20412;-80
2023/02/04 07:42:10;;;;;;;18.53;4.33;;;7.70;99.90;;;;;;5054132;28;20504;-80
2023/02/04 07:44:37;;;;;;;20.80;4.20;;;7.70;99.90;;;;;;5052233;28;20292;-80
2023/02/04 07:47:03;;;;;;;14.17;3.83;;;7.70;99.90;;;;;;5053262;28;20600;-79
2023/02/04 07:49:28;;;;;;;21.03;5.17;;;7.70;99.90;;;;;;5035463;28;20678;-80
2023/02/04 07:51:54;;;;;;;19.00;5.30;;;7.80;99.90;;;;;;5052584;28;20220;-80
2023/02/04 07:54:20;;;;;;;14.73;4.70;;;7.80;99.90;;;;;;5051776;28;20582;-80
2023/02/04 07:56:46;;;;;;;15.47;5.20;;;7.80;99.90;;;;;;5035939;28;20488;-80
2023/02/04 07:59:11;;;;;;;20.27;4.77;;;7.80;99.90;;;;;;5053598;28;20265;-79
2023/02/04 08:01:37;;;;;;;22.57;5.77;;;7.80;99.90;;;;;;5054225;28;20619;-80
2023/02/04 08:04:03;;;;;;;20.90;5.10;;;7.60;99.90;;;;;;5052202;28;20193;-80
2023/02/04 08:06:28;;;;;;;16.50;5.60;;;7.70;99.90;;;;;;5051990;28;20292;-80
2023/02/04 08:08:54;;;;;;;14.47;5.80;;;7.70;99.90;;;;;;5052946;28;20231;-80
2023/02/04 08:11:20;;;;;;;24.40;6.10;;;7.80;99.90;;;;;;5053573;28;20528;-80
2023/02/04 08:13:45;;;;;;;19.10;5.37;;;7.60;99.90;;;;;;5052900;28;20181;-80
2023/02/04 08:16:11;;;;;;;18.23;6.07;;;7.60;99.90;;;;;;5052041;28;20190;-80
2023/02/04 08:18:36;;;;;;;22.90;6.13;;;7.80;99.90;;;;;;5053282;28;20182;-80
2023/02/04 08:21:03;;;;;;;22.43;4.93;;;7.60;99.90;;;;;;5053039;28;20188;-80
2023/02/04 08:23:29;;;;;;;14.77;4.70;;;7.70;99.90;;;;;;5051923;28;20170;-80
2023/02/04 08:25:55;;;;;;;21.83;6.73;;;7.70;99.90;;;;;;5053260;28;20431;-80
2023/02/04 08:28:20;;;;;;;17.87;6.60;;;7.80;99.90;;;;;;5051407;28;20400;-80
2023/02/04 08:30:46;;;;;;;16.97;5.90;;;7.90;99.90;;;;;;5052460;28;20177;-80
2023/02/04 08:33:12;;;;;;;24.33;5.73;;;7.80;99.90;;;;;;5052435;28;20249;-80
2023/02/04 08:35:37;;;;;;;16.73;5.30;;;8.00;99.90;;;;;;5053109;28;20193;-80
2023/02/04 08:38:03;;;;;;;20.37;5.27;;;7.80;99.90;;;;;;5052809;28;20174;-80
2023/02/04 08:40:28;;;;;;;14.80;4.50;;;7.70;99.90;;;;;;5052783;28;20197;-80
2023/02/04 08:42:54;;;;;;;14.20;5.13;;;7.80;99.90;;;;;;5052486;28;20654;-80
2023/02/04 08:45:20;;;;;;;18.00;5.33;;;7.90;99.90;;;;;;5052418;28;20242;-80
2023/02/04 08:47:46;;;;;;;20.13;5.10;;;7.90;99.90;;;;;;5052621;28;20206;-80
2023/02/04 08:50:11;;;;;;;21.20;5.97;;;7.90;99.90;;;;;;5050413;28;20174;-80
2023/02/04 08:52:37;;;;;;;16.27;4.90;;;7.90;99.90;;;;;;5052756;28;20243;-79
2023/02/04 08:55:03;;;;;;;20.57;4.77;;;7.90;99.90;;;;;;5050874;28;20432;-80
2023/02/04 08:57:29;;;;;;;15.70;4.47;;;8.00;99.90;;;;;;5052518;28;20178;-79
2023/02/04 08:59:54;;;;;;;16.30;4.60;;;8.10;99.90;;;;;;5052095;28;20415;-79
2023/02/04 09:02:20;;;;;;;18.33;4.60;;;8.00;99.90;;;;;;5052534;28;20174;-80
2023/02/04 09:04:46;;;;;;;25.97;6.73;;;8.20;99.90;;;;;;5050918;28;20263;-79
2023/02/04 09:07:11;;;;;;;22.17;5.70;;;8.10;99.90;;;;;;5052665;28;20237;-79
2023/02/04 09:09:37;;;;;;;23.17;6.27;;;8.20;99.90;;;;;;5054857;28;20189;-79
2023/02/04 09:12:03;;;;;;;24.67;6.80;;;8.10;99.90;;;;;;5036540;28;20650;-79
2023/02/04 09:14:28;;;;;;;23.60;4.90;;;8.20;99.90;;;;;;5055417;28;20198;-79
2023/02/04 09:16:54;;;;;;;20.47;5.77;;;8.40;99.90;;;;;;5058229;28;20564;-79
2023/02/04 09:19:24;;;;;;;19.93;6.10;;;8.30;99.90;;;;;;5055803;28;20316;-78
2023/02/04 09:21:53;;;;;;;25.90;6.03;;;8.40;99.90;;;;;;5037002;28;20250;-76
2023/02/04 09:24:22;;;;;;;23.23;4.77;;;8.50;99.90;;;;;;5054153;28;20466;-79
2023/02/04 09:26:48;;;;;;;20.03;5.13;;;8.50;99.90;;;;;;5054452;28;20452;-78
2023/02/04 09:29:13;;;;;;;19.13;6.17;;;8.40;99.90;;;;;;5054015;28;20772;-79
2023/02/04 09:31:39;;;;;;;24.67;5.53;;;8.50;99.90;;;;;;5052920;28;20182;-79
2023/02/04 09:34:06;;;;;;;25.47;6.03;;;8.50;99.90;;;;;;5053768;28;20194;-79
2023/02/04 09:36:36;;;;;;;22.93;5.60;;;8.60;99.90;;;;;;5052526;28;20204;-77
2023/02/04 09:39:04;;;;;;;24.33;5.90;;;8.60;99.90;;;;;;5053651;28;20407;-77
2023/02/04 09:41:31;;;;;;;26.43;6.70;;;8.70;99.90;;;;;;5052708;28;20431;-76
2023/02/04 09:43:58;;;;;;;19.00;5.17;;;8.80;99.90;;;;;;5052939;28;20426;-79
2023/02/04 09:46:27;;;;;;;21.97;5.90;;;8.80;99.90;;;;;;5053934;28;20448;-78
2023/02/04 09:48:53;;;;;;;25.17;6.00;;;8.80;99.90;;;;;;5035205;28;20409;-78
2023/02/04 09:51:22;;;;;;;20.53;5.60;;;8.90;99.90;;;;;;5051756;28;20491;-78
2023/02/04 09:53:50;;;;;;;23.60;6.07;;;8.80;99.90;;;;;;5052223;28;20996;-79
2023/02/04 09:56:16;;;;;;;20.67;6.07;;;8.80;99.90;;;;;;5053442;28;20416;-79
2023/02/04 09:58:42;;;;;;;20.83;6.70;;;8.80;99.90;;;;;;5052916;28;20420;-77
2023/02/04 10:01:14;;;;;;;24.27;6.10;;;8.80;99.90;;;;;;5035143;28;20419;-79
2023/02/04 10:03:45;;;;;;;20.23;6.20;;;8.80;99.90;;;;;;5052997;28;20408;-79
2023/02/04 10:06:12;;;;;;;22.87;6.90;;;8.80;99.90;;;;;;5051739;28;20436;-78
2023/02/04 10:08:39;;;;;;;25.70;6.30;;;8.90;99.90;;;;;;5053084;28;20909;-79
2023/02/04 10:11:08;;;;;;;20.63;6.70;;;8.80;99.90;;;;;;5053006;28;20412;-79
2023/02/04 10:13:37;;;;;;;21.43;6.47;;;8.80;99.90;;;;;;5051305;28;20404;-78
2023/02/04 10:16:11;;;;;;;22.10;6.37;;;8.80;99.90;;;;;;5052351;28;20497;-78
2023/02/04 10:18:37;;;;;;;17.57;5.80;;;8.80;99.90;;;;;;5052866;28;20434;-78
2023/02/04 10:21:26;;;;;;;15.63;6.23;;;8.80;99.90;;;;;;5051129;28;20495;-77
2023/02/04 10:23:58;;;;;;;15.23;5.90;;;8.60;99.90;;;;;;5049731;28;20937;-77
2023/02/04 10:26:30;;;;;;;18.30;6.77;;;8.80;99.90;;;;;;5052433;28;20446;-76
2023/02/04 10:29:06;;;;;;;25.53;6.63;;;8.80;99.90;;;;;;5050866;28;20898;-78
2023/02/04 10:31:39;;;;;;;27.80;7.37;;;8.80;99.90;;;;;;5050405;28;20412;-76
2023/02/04 10:34:13;;;;;;;19.63;6.60;;;8.80;99.90;;;;;;5052465;28;20469;-77
2023/02/04 10:36:41;;;;;;;21.90;8.00;;;8.80;99.90;;;;;;5051533;28;20492;-76
2023/02/04 10:39:11;;;;;;;29.80;7.97;;;8.80;99.90;;;;;;5052031;28;20778;-77
2023/02/04 10:41:38;;;;;;;19.53;6.83;;;8.80;99.90;;;;;;5050604;28;20492;-77
2023/02/04 10:44:11;;;;;;;19.00;7.57;;;8.90;99.90;;;;;;5050008;28;20439;-77
2023/02/04 10:46:37;;;;;;;24.30;6.87;;;8.90;99.90;;;;;;5051870;28;20474;-78
2023/02/04 10:49:21;;;;;;;15.57;7.43;;;8.90;99.90;;;;;;5051819;28;20408;-77
2023/02/04 10:51:49;;;;;;;20.27;7.07;;;8.90;99.90;;;;;;5050705;28;20416;-77
2023/02/04 10:54:31;;;;;;;16.43;6.80;;;8.90;99.90;;;;;;5050237;28;20432;-76
2023/02/04 10:57:03;;;;;;;25.93;7.70;;;9.00;99.90;;;;;;5049748;28;20424;-77
2023/02/04 10:59:28;;;;;;;22.57;8.73;;;8.90;99.90;;;;;;5051391;28;20411;-76
2023/02/04 11:01:56;;;;;;;27.93;8.50;;;8.90;99.90;;;;;;5033356;28;20419;-78
2023/02/04 11:04:22;;;;;;;16.27;6.90;;;8.90;99.90;;;;;;5049830;28;20220;-77
2023/02/04 11:06:49;;;;;;;24.63;9.97;;;8.90;99.90;;;;;;5051019;28;20448;-77
2023/02/04 11:09:14;;;;;;;22.07;11.03;;;9.00;99.90;;;;;;5033288;28;20416;-79
2023/02/04 11:11:48;;;;;;;26.70;9.20;;;9.00;99.90;;;;;;5050829;28;20776;-77
2023/02/04 11:14:27;;;;;;;22.17;8.53;;;9.10;99.90;;;;;;5032750;28;20221;-77
2023/02/04 11:16:59;;;;;;;32.07;9.27;;;9.10;99.90;;;;;;5050955;28;20435;-77
2023/02/04 11:19:36;;;;;;;34.27;10.87;;;9.20;99.90;;;;;;5051056;28;20419;-76
2023/02/04 11:22:23;;;;;;;23.23;10.40;;;9.20;99.90;;;;;;5050941;28;20465;-78
2023/02/04 11:24:49;;;;;;;27.83;11.03;;;9.30;99.90;;;;;;5049504;28;20432;-78
2023/02/04 11:27:36;;;;;;;27.17;10.53;;;9.20;99.90;;;;;;5032570;28;20448;-79
2023/02/04 11:30:17;;;;;;;34.20;11.43;;;9.20;99.90;;;;;;5049577;28;20411;-77
2023/02/04 11:32:42;;;;;;;22.60;11.03;;;9.30;99.90;;;;;;5050576;28;20407;-79
2023/02/04 11:35:11;;;;;;;32.50;13.93;;;9.30;99.90;;;;;;5049554;28;20428;-77
2023/02/04 11:37:42;;;;;;;22.77;11.30;;;9.30;99.90;;;;;;5050760;28;20224;-76
2023/02/04 11:40:30;;;;;;;23.50;11.90;;;9.30;99.90;;;;;;5049842;28;20470;-77
2023/02/04 11:42:58;;;;;;;18.93;11.27;;;9.30;99.90;;;;;;5050619;28;20439;-78
2023/02/04 11:45:25;;;;;;;22.03;10.00;;;9.40;99.90;;;;;;5050620;28;20440;-77
2023/02/04 11:47:51;;;;;;;21.67;12.00;;;9.30;99.90;;;;;;5049449;28;20462;-78
2023/02/04 11:50:24;;;;;;;20.20;9.33;;;9.30;99.90;;;;;;5047833;28;20412;-77
2023/02/04 11:52:50;;;;;;;20.60;11.80;;;9.30;99.90;;;;;;5049437;28;20193;-77
2023/02/04 11:55:18;;;;;;;27.03;11.00;;;9.40;99.90;;;;;;5049779;28;20428;-76
2023/02/04 11:57:44;;;;;;;24.73;10.80;;;9.30;99.90;;;;;;5048953;28;20491;-78
2023/02/04 12:00:18;;;;;;;20.77;10.97;;;9.30;99.90;;;;;;5049133;28;20412;-77
2023/02/04 12:02:50;;;;;;;21.07;9.97;;;9.30;99.90;;;;;;5051934;28;20408;-80
2023/02/04 12:05:18;;;;;;;18.87;10.07;;;9.30;99.90;;;;;;5053263;28;20509;-80
2023/02/04 12:07:45;;;;;;;27.40;10.87;;;9.20;99.90;;;;;;5050201;28;20953;-77
2023/02/04 12:10:23;;;;;;;29.40;11.13;;;9.30;99.90;;;;;;5049884;28;20421;-76
2023/02/04 12:12:51;;;;;;;20.20;10.47;;;9.20;99.90;;;;;;5051481;28;20455;-80
2023/02/04 12:15:34;;;;;;;24.70;11.00;;;9.20;99.90;;;;;;5035632;28;20458;-77
2023/02/04 12:18:08;;;;;;;26.27;10.40;;;9.20;99.90;;;;;;5052221;28;20447;-79
2023/02/04 12:20:37;;;;;;;27.30;10.30;;;9.30;99.90;;;;;;5052669;28;20755;-77
2023/02/04 12:23:03;;;;;;;35.20;12.53;;;9.20;99.90;;;;;;5053771;28;20396;-79
2023/02/04 12:25:29;;;;;;;25.70;10.80;;;9.20;99.90;;;;;;5053907;28;20429;-80
2023/02/04 12:27:55;;;;;;;21.80;9.37;;;9.30;99.90;;;;;;5055661;28;20482;-80
2023/02/04 12:30:24;;;;;;;21.47;9.17;;;9.20;99.90;;;;;;5055649;28;20491;-80
2023/02/04 12:32:49;;;;;;;20.37;9.43;;;9.20;99.90;;;;;;5056649;28;20771;-79
2023/02/04 12:35:15;;;;;;;23.80;9.67;;;9.30;99.90;;;;;;5055302;28;20424;-79
2023/02/04 12:37:42;;;;;;;20.23;8.80;;;9.30;99.90;;;;;;5055272;28;20655;-78
2023/02/04 12:40:13;;;;;;;27.13;8.93;;;9.30;99.90;;;;;;5054150;28;20506;-80
2023/02/04 12:42:39;;;;;;;19.40;9.03;;;9.30;99.90;;;;;;5054925;28;20416;-75
2023/02/04 12:45:05;;;;;;;27.90;9.43;;;9.30;99.90;;;;;;5054088;28;20535;-80